Time;durP1;ratioP1;P1;durP2;ratioP2;P2;SDS_P1;SDS_P2;PMS_P1;PMS_P2;Temp;Humidity;BMP_temperature;BMP_pressure;BME280_temperature;BME280_humidity;BME280_pressure;Samples;Min_cycle;Max_cycle;Signal;HPM_P1;HPM_P2
2024/02/28 00:01:03;;;;;;;9.30;5.43;;;15.70;99.90;;;;;;5031818;28;20387;-74
2024/02/28 00:03:28;;;;;;;10.90;6.13;;;15.70;99.90;;;;;;5031032;28;20072;-75
2024/02/28 00:05:54;;;;;;;8.20;5.27;;;15.70;99.90;;;;;;5029852;28;20735;-75
2024/02/28 00:08:21;;;;;;;7.80;5.47;;;15.60;99.90;;;;;;5030595;28;20041;-74
2024/02/28 00:10:47;;;;;;;9.32;6.15;;;15.70;99.90;;;;;;5061014;28;20026;-73
2024/02/28 00:13:14;;;;;;;9.07;5.67;;;15.60;99.90;;;;;;5031207;28;20041;-75
2024/02/28 00:15:40;;;;;;;9.57;5.40;;;15.60;99.90;;;;;;5031983;28;20120;-75
2024/02/28 00:18:06;;;;;;;8.40;5.47;;;15.60;99.90;;;;;;5019453;28;20509;-73
2024/02/28 00:20:31;;;;;;;8.90;5.37;;;15.60;99.90;;;;;;5056285;28;20049;-73
2024/02/28 00:22:57;;;;;;;8.93;5.23;;;15.60;99.90;;;;;;5030542;28;20521;-74
2024/02/28 00:25:23;;;;;;;7.47;5.17;;;15.50;99.90;;;;;;5030952;28;20071;-75
2024/02/28 00:27:49;;;;;;;8.53;5.60;;;15.50;99.90;;;;;;5032038;28;20072;-75
2024/02/28 00:30:14;;;;;;;7.50;4.70;;;15.50;99.90;;;;;;5032319;28;20034;-74
2024/02/28 00:32:40;;;;;;;8.33;4.60;;;15.50;99.90;;;;;;5031825;28;20037;-73
2024/02/28 00:35:06;;;;;;;7.40;5.13;;;15.50;99.90;;;;;;5021450;28;20417;-73
2024/02/28 00:37:32;;;;;;;7.57;4.97;;;15.40;99.90;;;;;;5027897;28;20355;-74
2024/02/28 00:39:58;;;;;;;8.00;5.10;;;15.40;99.90;;;;;;5033191;28;20064;-73
2024/02/28 00:42:24;;;;;;;8.20;5.53;;;15.40;99.90;;;;;;5031990;28;20033;-76
2024/02/28 00:44:49;;;;;;;6.73;4.67;;;15.40;99.90;;;;;;5032441;28;20068;-74
2024/02/28 00:47:15;;;;;;;7.67;5.03;;;15.40;99.90;;;;;;5032119;28;20109;-73
2024/02/28 00:49:41;;;;;;;8.13;5.03;;;15.40;99.90;;;;;;5031740;28;20508;-73
2024/02/28 00:52:07;;;;;;;7.03;4.60;;;15.40;99.90;;;;;;5029973;28;20430;-73
2024/02/28 00:54:32;;;;;;;7.67;4.67;;;15.30;99.90;;;;;;5030623;28;20029;-74
2024/02/28 00:56:59;;;;;;;7.70;5.40;;;15.30;99.90;;;;;;5029923;28;20043;-74
2024/02/28 00:59:25;;;;;;;6.30;4.28;;;15.30;99.90;;;;;;5031098;28;20021;-73
2024/02/28 01:01:51;;;;;;;7.63;4.77;;;15.30;99.90;;;;;;5029832;28;20529;-74
2024/02/28 01:04:17;;;;;;;9.00;5.00;;;15.30;99.90;;;;;;5031527;28;20079;-74
2024/02/28 01:06:43;;;;;;;6.87;4.60;;;15.30;99.90;;;;;;5029260;28;20082;-74
2024/02/28 01:09:08;;;;;;;5.70;4.07;;;15.20;99.90;;;;;;5029590;28;20681;-74
2024/02/28 01:11:34;;;;;;;5.63;4.13;;;15.20;99.90;;;;;;5030919;28;20036;-74
2024/02/28 01:14:00;;;;;;;5.67;4.17;;;15.20;99.90;;;;;;5027823;28;20037;-75
2024/02/28 01:16:27;;;;;;;6.27;4.50;;;15.20;99.90;;;;;;5036464;28;20056;-74
2024/02/28 01:18:53;;;;;;;6.90;4.38;;;15.20;99.90;;;;;;5030732;28;20044;-74
2024/02/28 01:21:19;;;;;;;7.73;4.20;;;15.20;99.90;;;;;;5029889;28;20025;-73
2024/02/28 01:23:45;;;;;;;6.40;4.23;;;15.20;99.90;;;;;;5029774;28;20040;-73
2024/02/28 01:26:10;;;;;;;6.03;4.03;;;15.10;99.90;;;;;;5031354;28;20067;-75
2024/02/28 01:28:36;;;;;;;8.47;4.10;;;15.10;99.90;;;;;;5031496;28;20034;-74
2024/02/28 01:31:02;;;;;;;8.23;4.00;;;15.10;99.90;;;;;;5025252;28;20387;-74
2024/02/28 01:33:28;;;;;;;6.70;4.10;;;15.10;99.90;;;;;;5062336;28;20033;-73
2024/02/28 01:35:54;;;;;;;6.43;3.97;;;15.10;99.90;;;;;;5023637;28;20263;-75
2024/02/28 01:38:19;;;;;;;7.40;3.57;;;15.10;99.90;;;;;;5031001;28;20051;-73
2024/02/28 01:40:46;;;;;;;4.77;3.67;;;15.10;99.90;;;;;;5031299;28;20156;-73
2024/02/28 01:43:12;;;;;;;4.93;3.72;;;15.10;99.90;;;;;;5063292;28;20112;-73
2024/02/28 01:45:38;;;;;;;5.22;3.90;;;15.00;99.90;;;;;;5031066;28;20042;-73
2024/02/28 01:48:09;;;;;;;5.03;3.70;;;15.00;99.90;;;;;;5031035;28;20025;-74
2024/02/28 01:50:37;;;;;;;5.95;3.83;;;15.00;99.90;;;;;;5029094;28;20041;-73
2024/02/28 01:53:03;;;;;;;5.90;3.80;;;15.00;99.90;;;;;;5029315;28;20053;-75
2024/02/28 01:55:29;;;;;;;;;;;15.00;99.90;;;;;;5031122;28;20035;-75
2024/02/28 01:57:56;;;;;;;4.35;3.35;;;15.00;99.90;;;;;;5030560;28;20265;-73
2024/02/28 02:00:22;;;;;;;5.88;3.70;;;15.00;99.90;;;;;;5061324;28;20041;-73
2024/02/28 02:02:48;;;;;;;4.30;3.42;;;14.90;99.90;;;;;;5029703;28;20866;-75
2024/02/28 02:05:16;;;;;;;5.00;3.83;;;15.00;99.90;;;;;;5030153;28;20029;-73
2024/02/28 02:07:42;;;;;;;4.70;3.25;;;15.00;99.90;;;;;;5030715;28;20060;-73
2024/02/28 02:10:11;;;;;;;4.38;3.47;;;15.00;99.90;;;;;;5030793;28;20025;-74
2024/02/28 02:12:37;;;;;;;5.20;3.50;;;14.90;99.90;;;;;;5030203;28;20109;-75
2024/02/28 02:15:04;;;;;;;5.00;3.93;;;14.90;99.90;;;;;;5030796;28;20025;-73
2024/02/28 02:17:29;;;;;;;6.13;3.42;;;14.90;99.90;;;;;;5028867;28;20033;-75
2024/02/28 02:19:55;;;;;;;5.13;3.40;;;14.90;99.90;;;;;;5030022;28;20037;-72
2024/02/28 02:22:23;;;;;;;5.20;3.90;;;14.90;99.90;;;;;;5028687;28;20040;-73
2024/02/28 02:24:49;;;;;;;6.28;3.50;;;14.90;99.90;;;;;;5017827;28;20308;-73
2024/02/28 02:27:14;;;;;;;5.67;3.77;;;14.90;99.90;;;;;;5061920;28;20437;-73
2024/02/28 02:29:40;;;;;;;4.70;3.67;;;14.90;99.90;;;;;;5049020;28;20060;-73
2024/02/28 02:32:06;;;;;;;4.70;3.43;;;14.90;99.90;;;;;;5030545;28;20033;-73
2024/02/28 02:34:32;;;;;;;5.73;3.63;;;14.90;99.90;;;;;;5028731;28;20398;-73
2024/02/28 02:36:58;;;;;;;3.77;3.10;;;14.90;99.90;;;;;;5030360;28;20030;-75
2024/02/28 02:39:23;;;;;;;4.90;3.33;;;14.80;99.90;;;;;;5030007;28;20112;-74
2024/02/28 02:41:50;;;;;;;4.67;3.30;;;14.80;99.90;;;;;;5028548;28;20029;-74
2024/02/28 02:44:16;;;;;;;4.18;3.03;;;14.80;99.90;;;;;;5030030;28;20029;-73
2024/02/28 02:46:41;;;;;;;3.87;2.97;;;14.80;99.90;;;;;;5028346;28;20064;-73
2024/02/28 02:49:07;;;;;;;4.33;3.17;;;14.80;99.90;;;;;;5028386;28;20338;-73
2024/02/28 02:51:34;;;;;;;4.50;3.27;;;14.80;99.90;;;;;;5027405;28;20053;-75
2024/02/28 02:53:59;;;;;;;3.80;3.10;;;14.80;99.90;;;;;;5022060;28;20111;-73
2024/02/28 02:56:25;;;;;;;6.00;3.40;;;14.80;99.90;;;;;;5052331;28;20038;-73
2024/02/28 02:58:51;;;;;;;3.77;2.97;;;14.80;99.90;;;;;;5029135;28;20052;-73
2024/02/28 03:01:16;;;;;;;5.27;3.10;;;14.80;99.90;;;;;;5059263;28;20033;-73
2024/02/28 03:03:42;;;;;;;5.57;2.90;;;14.80;99.90;;;;;;5029696;28;20116;-73
2024/02/28 03:06:09;;;;;;;5.07;3.33;;;14.80;99.90;;;;;;5055891;28;20152;-72
2024/02/28 03:08:35;;;;;;;4.75;3.03;;;14.80;99.90;;;;;;5027858;28;20034;-73
2024/02/28 03:11:04;;;;;;;4.23;3.47;;;14.80;99.90;;;;;;5029347;28;20029;-73
2024/02/28 03:13:30;;;;;;;5.00;3.03;;;14.80;99.90;;;;;;5028118;28;20076;-75
2024/02/28 03:15:55;;;;;;;4.57;3.27;;;14.80;99.90;;;;;;5029587;28;20033;-73
2024/02/28 03:18:21;;;;;;;4.80;3.10;;;14.70;99.90;;;;;;5056036;28;20021;-74
2024/02/28 03:20:47;;;;;;;4.43;3.40;;;14.70;99.90;;;;;;5028326;28;20421;-73
2024/02/28 03:23:12;;;;;;;4.47;3.17;;;14.80;99.90;;;;;;5058392;28;20033;-73
2024/02/28 03:25:38;;;;;;;4.50;2.60;;;14.70;99.90;;;;;;5029638;28;20037;-73
2024/02/28 03:28:04;;;;;;;5.37;3.50;;;14.70;99.90;;;;;;5059558;28;20381;-73
2024/02/28 03:30:30;;;;;;;3.70;2.77;;;14.70;99.90;;;;;;5029306;28;20030;-74
2024/02/28 03:32:56;;;;;;;3.30;2.70;;;14.70;99.90;;;;;;5027701;28;20041;-73
2024/02/28 03:35:21;;;;;;;3.30;2.90;;;14.70;99.90;;;;;;5028238;28;20502;-74
2024/02/28 03:37:47;;;;;;;4.00;2.87;;;14.70;99.90;;;;;;5029226;28;20033;-74
2024/02/28 03:40:14;;;;;;;4.20;2.67;;;14.70;99.90;;;;;;5061425;28;20528;-73
2024/02/28 03:42:40;;;;;;;5.80;3.00;;;14.70;99.90;;;;;;5029744;28;20094;-73
2024/02/28 03:45:06;;;;;;;5.73;2.80;;;14.70;99.90;;;;;;5029755;28;20025;-73
2024/02/28 03:47:32;;;;;;;4.95;2.70;;;14.70;99.90;;;;;;5029721;28;20036;-73
2024/02/28 03:49:59;;;;;;;3.47;2.70;;;14.70;99.90;;;;;;5029486;28;20382;-73
2024/02/28 03:52:25;;;;;;;3.67;3.05;;;14.70;99.90;;;;;;5061167;28;20049;-73
2024/02/28 03:54:50;;;;;;;3.50;2.70;;;14.60;99.90;;;;;;5028379;28;20117;-73
2024/02/28 03:57:16;;;;;;;3.97;2.70;;;14.70;99.90;;;;;;5029596;28;20025;-73
2024/02/28 03:59:42;;;;;;;3.23;2.90;;;14.70;99.90;;;;;;5030168;28;20021;-76
2024/02/28 04:02:07;;;;;;;3.40;2.73;;;14.60;99.90;;;;;;5033030;28;20021;-73
2024/02/28 04:04:33;;;;;;;3.53;2.80;;;14.60;99.90;;;;;;5065330;28;20079;-74
2024/02/28 04:06:59;;;;;;;5.20;3.07;;;14.60;99.90;;;;;;5065060;28;20463;-73
2024/02/28 04:09:25;;;;;;;3.67;2.90;;;14.60;99.90;;;;;;5064961;28;20094;-73
2024/02/28 04:11:51;;;;;;;4.53;2.60;;;14.60;99.90;;;;;;5032625;28;20075;-75
2024/02/28 04:14:17;;;;;;;3.13;2.77;;;14.60;99.90;;;;;;5032742;28;20034;-73
2024/02/28 04:16:44;;;;;;;3.63;2.67;;;14.60;99.90;;;;;;5031254;28;20037;-74
2024/02/28 04:19:11;;;;;;;3.15;2.47;;;14.60;99.90;;;;;;5055512;28;20034;-73
2024/02/28 04:21:37;;;;;;;3.00;2.70;;;14.60;99.90;;;;;;5064010;28;20030;-73
2024/02/28 04:24:05;;;;;;;3.55;2.50;;;14.60;99.90;;;;;;5032741;28;20037;-73
2024/02/28 04:26:31;;;;;;;2.70;2.33;;;14.60;99.90;;;;;;5032469;28;20129;-74
2024/02/28 04:28:56;;;;;;;3.97;2.63;;;14.50;99.90;;;;;;5032399;28;20143;-73
2024/02/28 04:31:23;;;;;;;4.67;2.53;;;14.60;99.90;;;;;;5031022;28;20033;-74
2024/02/28 04:33:49;;;;;;;3.95;3.03;;;14.50;99.90;;;;;;5032805;28;20052;-73
2024/02/28 04:36:15;;;;;;;3.17;2.55;;;14.60;99.90;;;;;;5031332;28;20478;-73
2024/02/28 04:38:41;;;;;;;;;;;14.50;99.90;;;;;;5031739;28;20030;-73
2024/02/28 04:41:07;;;;;;;3.65;2.67;;;14.60;99.90;;;;;;5032528;28;20289;-73
2024/02/28 04:43:33;;;;;;;4.60;2.80;;;14.60;99.90;;;;;;5032330;28;20044;-74
2024/02/28 04:45:59;;;;;;;6.33;2.63;;;14.60;99.90;;;;;;5032256;28;20540;-73
2024/02/28 04:48:25;;;;;;;3.63;2.90;;;14.50;99.90;;;;;;5030833;28;20270;-76
2024/02/28 04:50:51;;;;;;;3.63;2.50;;;14.50;99.90;;;;;;5032513;28;20042;-73
2024/02/28 04:53:17;;;;;;;4.50;2.70;;;14.50;99.90;;;;;;5063397;28;20099;-74
2024/02/28 04:55:43;;;;;;;4.63;2.57;;;14.50;99.90;;;;;;5030934;28;20425;-73
2024/02/28 04:58:08;;;;;;;2.90;2.37;;;14.50;99.90;;;;;;5051895;28;20026;-73
2024/02/28 05:00:34;;;;;;;4.23;2.73;;;14.50;99.90;;;;;;5029694;28;20044;-74
2024/02/28 05:03:00;;;;;;;3.40;2.50;;;14.50;99.90;;;;;;5030008;28;20033;-73
2024/02/28 05:05:26;;;;;;;4.03;2.70;;;14.50;99.90;;;;;;5031032;28;20033;-73
2024/02/28 05:07:52;;;;;;;3.70;2.50;;;14.50;99.90;;;;;;5030645;28;20029;-73
2024/02/28 05:10:18;;;;;;;2.90;2.23;;;14.50;99.90;;;;;;5030172;28;20033;-73
2024/02/28 05:12:44;;;;;;;3.53;2.43;;;14.50;99.90;;;;;;5031300;28;20422;-74
2024/02/28 05:15:10;;;;;;;3.47;2.40;;;14.50;99.90;;;;;;5030164;28;20033;-73
2024/02/28 05:17:36;;;;;;;3.55;2.50;;;14.50;99.90;;;;;;5029973;28;20032;-73
2024/02/28 05:20:02;;;;;;;2.80;2.40;;;14.50;99.90;;;;;;5030503;28;20033;-74
2024/02/28 05:22:28;;;;;;;4.33;2.60;;;14.50;99.90;;;;;;5030108;28;20139;-74
2024/02/28 05:24:54;;;;;;;2.97;2.60;;;14.40;99.90;;;;;;5030594;28;20121;-73
2024/02/28 05:27:19;;;;;;;3.50;2.60;;;14.50;99.90;;;;;;5017307;28;20062;-74
2024/02/28 05:29:45;;;;;;;4.00;2.97;;;14.40;99.90;;;;;;5031919;28;20493;-72
2024/02/28 05:32:11;;;;;;;2.95;2.10;;;14.50;99.90;;;;;;5031312;28;20120;-73
2024/02/28 05:34:37;;;;;;;3.33;2.53;;;14.40;99.90;;;;;;5031088;28;20029;-73
2024/02/28 05:37:03;;;;;;;3.13;2.42;;;14.40;99.90;;;;;;5063581;28;20021;-75
2024/02/28 05:39:30;;;;;;;3.75;2.55;;;14.40;99.90;;;;;;5030005;28;20033;-74
2024/02/28 05:41:57;;;;;;;6.05;2.42;;;14.40;99.90;;;;;;5031510;28;20025;-73
2024/02/28 05:44:24;;;;;;;2.83;2.42;;;14.40;99.90;;;;;;5030997;28;20048;-75
2024/02/28 05:46:50;;;;;;;3.72;2.42;;;14.40;99.90;;;;;;5031260;28;20108;-73
2024/02/28 05:49:16;;;;;;;3.00;2.70;;;14.40;99.90;;;;;;5057661;28;20109;-75
2024/02/28 05:51:42;;;;;;;2.77;2.53;;;14.40;99.90;;;;;;5027383;28;20073;-73
2024/02/28 05:54:07;;;;;;;2.80;2.50;;;14.40;99.90;;;;;;5029443;28;20747;-75
2024/02/28 05:56:33;;;;;;;4.13;2.90;;;14.40;99.90;;;;;;5030601;28;20048;-73
2024/02/28 05:58:59;;;;;;;3.10;2.63;;;14.40;99.90;;;;;;5030553;28;20519;-74
2024/02/28 06:01:25;;;;;;;3.17;2.45;;;14.30;99.90;;;;;;5029432;28;20035;-73
2024/02/28 06:03:52;;;;;;;4.47;2.60;;;14.40;99.90;;;;;;5030071;28;20037;-74
2024/02/28 06:06:18;;;;;;;5.20;2.58;;;14.30;99.90;;;;;;5030553;28;20589;-76
2024/02/28 06:08:44;;;;;;;3.08;2.42;;;14.30;99.90;;;;;;5030625;28;20040;-73
2024/02/28 06:11:10;;;;;;;4.00;2.60;;;14.30;99.90;;;;;;5030529;28;20029;-73
2024/02/28 06:13:36;;;;;;;3.40;2.50;;;14.30;99.90;;;;;;5062024;28;20061;-73
2024/02/28 06:16:03;;;;;;;3.13;2.75;;;14.30;99.90;;;;;;5030558;28;20029;-74
2024/02/28 06:18:33;;;;;;;3.53;2.88;;;14.30;99.90;;;;;;5056003;28;20429;-72
2024/02/28 06:20:59;;;;;;;3.83;2.90;;;14.30;99.90;;;;;;5030208;28;20060;-75
2024/02/28 06:23:25;;;;;;;3.17;2.72;;;14.30;99.90;;;;;;5062413;28;20075;-73
2024/02/28 06:25:51;;;;;;;4.30;2.80;;;14.30;99.90;;;;;;5029366;28;20068;-74
2024/02/28 06:28:17;;;;;;;3.43;2.60;;;14.30;99.90;;;;;;5030592;28;20032;-73
2024/02/28 06:30:47;;;;;;;4.80;2.80;;;14.30;99.90;;;;;;5028724;28;20362;-74
2024/02/28 06:33:13;;;;;;;3.10;2.60;;;14.30;99.90;;;;;;5030493;28;20068;-73
2024/02/28 06:35:40;;;;;;;4.05;2.78;;;14.30;99.90;;;;;;5029061;28;20528;-74
2024/02/28 06:38:07;;;;;;;4.82;2.92;;;14.30;99.90;;;;;;5062317;28;20039;-74
2024/02/28 06:40:33;;;;;;;3.67;2.78;;;14.20;99.90;;;;;;5030010;28;20026;-73
2024/02/28 06:43:00;;;;;;;5.57;2.95;;;14.30;99.90;;;;;;5028396;28;20480;-74
2024/02/28 06:45:26;;;;;;;;;;;14.20;99.90;;;;;;5062748;28;20057;-73
2024/02/28 06:47:52;;;;;;;3.42;2.67;;;14.20;99.90;;;;;;5030040;28;19955;-73
2024/02/28 06:50:18;;;;;;;4.97;3.23;;;14.20;99.90;;;;;;5030238;28;20021;-74
2024/02/28 06:52:44;;;;;;;3.60;2.80;;;14.20;99.90;;;;;;5058323;28;20139;-73
2024/02/28 06:55:14;;;;;;;3.50;3.00;;;14.20;99.90;;;;;;5057802;28;20703;-73
2024/02/28 06:57:41;;;;;;;3.33;2.38;;;14.20;99.90;;;;;;5028716;28;20037;-73
2024/02/28 07:00:09;;;;;;;3.08;2.58;;;14.20;99.90;;;;;;5029602;28;20463;-76
2024/02/28 07:02:37;;;;;;;3.85;2.75;;;14.20;99.90;;;;;;5060655;28;20045;-73
2024/02/28 07:05:04;;;;;;;3.45;2.63;;;14.20;99.90;;;;;;5061393;28;20429;-76
2024/02/28 07:07:31;;;;;;;5.03;2.85;;;14.20;99.90;;;;;;5060692;28;20037;-73
2024/02/28 07:09:57;;;;;;;3.97;3.00;;;14.20;99.90;;;;;;5030692;28;20112;-73
2024/02/28 07:12:24;;;;;;;3.13;2.47;;;14.20;99.90;;;;;;5029403;28;20048;-74
2024/02/28 07:14:50;;;;;;;3.65;2.72;;;14.20;99.90;;;;;;5030280;28;20489;-74
2024/02/28 07:17:16;;;;;;;5.32;3.33;;;14.20;99.90;;;;;;5061622;28;20079;-73
2024/02/28 07:19:42;;;;;;;3.53;2.43;;;14.20;99.90;;;;;;5030075;28;20060;-73
2024/02/28 07:22:08;;;;;;;4.77;2.97;;;14.20;99.90;;;;;;5061584;28;20286;-73
2024/02/28 07:24:34;;;;;;;4.00;3.13;;;14.20;99.90;;;;;;5061462;28;20033;-75
2024/02/28 07:27:00;;;;;;;4.50;2.90;;;14.20;99.90;;;;;;5029645;28;20038;-73
2024/02/28 07:29:26;;;;;;;4.13;2.83;;;14.20;99.90;;;;;;5027517;28;20604;-74
2024/02/28 07:31:52;;;;;;;3.80;2.63;;;14.20;99.90;;;;;;5026636;28;20093;-73
2024/02/28 07:34:18;;;;;;;5.70;3.57;;;14.20;99.90;;;;;;5029239;28;20026;-72
2024/02/28 07:36:44;;;;;;;13.63;3.20;;;14.20;99.90;;;;;;5033174;28;20048;-75
2024/02/28 07:39:12;;;;;;;25.10;5.60;;;14.20;99.90;;;;;;5031285;28;20096;-73
2024/02/28 07:41:41;;;;;;;18.75;3.40;;;14.20;99.90;;;;;;5030801;28;20137;-74
2024/02/28 07:44:07;;;;;;;15.27;3.95;;;14.20;99.90;;;;;;5031579;28;20131;-73
2024/02/28 07:46:34;;;;;;;15.27;3.88;;;14.20;99.90;;;;;;5033420;28;20089;-72
2024/02/28 07:49:01;;;;;;;16.55;3.80;;;14.20;99.90;;;;;;5032890;28;20041;-73
2024/02/28 07:51:28;;;;;;;11.43;3.45;;;14.20;99.90;;;;;;5030872;28;20158;-72
2024/02/28 07:53:53;;;;;;;9.70;3.92;;;14.20;99.90;;;;;;5062262;28;20048;-73
2024/02/28 07:56:21;;;;;;;15.07;4.20;;;14.20;99.90;;;;;;5033074;28;20029;-73
2024/02/28 07:58:47;;;;;;;16.27;4.50;;;14.20;99.90;;;;;;5033029;28;20147;-73
2024/02/28 08:01:13;;;;;;;11.15;4.13;;;14.20;99.90;;;;;;5032354;28;20111;-75
2024/02/28 08:03:39;;;;;;;9.35;3.75;;;14.20;99.90;;;;;;5031296;28;20040;-72
2024/02/28 08:06:05;;;;;;;13.77;3.57;;;14.20;99.90;;;;;;5032559;28;20077;-73
2024/02/28 08:08:30;;;;;;;14.98;5.30;;;14.20;99.90;;;;;;5031531;28;20168;-74
2024/02/28 08:10:56;;;;;;;11.07;4.87;;;14.20;99.90;;;;;;5033372;28;20083;-73
2024/02/28 08:13:22;;;;;;;20.53;5.10;;;14.20;99.90;;;;;;5033142;28;20467;-73
2024/02/28 08:15:48;;;;;;;9.60;4.80;;;14.20;99.90;;;;;;5032679;28;20045;-74
2024/02/28 08:18:14;;;;;;;9.30;5.33;;;14.20;99.90;;;;;;5055456;28;20026;-72
2024/02/28 08:20:40;;;;;;;18.13;5.03;;;14.30;99.90;;;;;;5031311;28;20029;-76
2024/02/28 08:23:06;;;;;;;21.50;4.90;;;14.20;99.90;;;;;;5032987;28;20199;-73
2024/02/28 08:25:32;;;;;;;12.07;5.13;;;14.30;99.90;;;;;;5030709;28;20033;-72
2024/02/28 08:27:58;;;;;;;68.88;47.42;;;14.30;99.90;;;;;;5031296;28;20037;-73
2024/02/28 08:30:25;;;;;;;39.37;25.73;;;14.30;99.90;;;;;;5064568;28;20026;-73
2024/02/28 08:32:51;;;;;;;32.08;19.63;;;14.30;99.90;;;;;;5032316;28;20197;-74
2024/02/28 08:35:19;;;;;;;24.60;18.07;;;14.30;99.90;;;;;;5029813;28;20029;-72
2024/02/28 08:37:44;;;;;;;27.48;16.98;;;14.30;99.90;;;;;;5030918;28;20034;-73
2024/02/28 08:40:11;;;;;;;25.53;14.70;;;14.30;99.90;;;;;;5032447;28;20033;-75
2024/02/28 08:42:37;;;;;;;19.52;12.95;;;14.30;99.90;;;;;;5030825;28;20040;-74
2024/02/28 08:45:05;;;;;;;18.40;11.30;;;14.30;99.90;;;;;;5031795;28;20021;-72
2024/02/28 08:47:32;;;;;;;23.15;11.55;;;14.40;99.90;;;;;;5030785;28;20060;-73
2024/02/28 08:49:57;;;;;;;22.30;12.35;;;14.40;99.90;;;;;;5032493;28;20036;-73
2024/02/28 08:52:24;;;;;;;18.07;11.87;;;14.40;99.90;;;;;;5030172;28;20789;-73
2024/02/28 08:54:50;;;;;;;24.27;12.38;;;14.40;99.90;;;;;;5031080;28;20105;-73
2024/02/28 08:57:16;;;;;;;17.25;10.35;;;14.40;99.90;;;;;;5027538;28;20029;-73
2024/02/28 08:59:42;;;;;;;21.63;10.85;;;14.40;99.90;;;;;;5031536;28;20044;-75
2024/02/28 09:02:08;;;;;;;24.03;11.07;;;14.40;99.90;;;;;;5031280;28;20471;-74
2024/02/28 09:04:34;;;;;;;20.98;11.00;;;14.40;99.90;;;;;;5054309;28;20040;-73
2024/02/28 09:07:00;;;;;;;17.08;11.07;;;14.50;99.90;;;;;;5032835;28;20103;-75
2024/02/28 09:09:28;;;;;;;24.63;10.53;;;14.50;99.90;;;;;;5031795;28;20467;-72
2024/02/28 09:11:54;;;;;;;55.47;33.90;;;14.60;99.90;;;;;;5061829;28;20047;-73
2024/02/28 09:14:20;;;;;;;56.60;33.50;;;14.70;99.90;;;;;;5061260;28;20458;-72
2024/02/28 09:16:47;;;;;;;60.67;34.70;;;14.70;99.90;;;;;;5056958;28;20501;-73
2024/02/28 09:19:13;;;;;;;70.97;34.92;;;14.80;99.90;;;;;;5032149;28;20029;-72
2024/02/28 09:21:39;;;;;;;64.03;33.90;;;14.80;99.90;;;;;;5030294;28;20436;-73
2024/02/28 09:24:05;;;;;;;55.00;32.53;;;14.80;99.90;;;;;;5026703;28;20101;-73
2024/02/28 09:26:31;;;;;;;51.45;29.88;;;14.90;99.90;;;;;;5063107;28;20474;-73
2024/02/28 09:28:57;;;;;;;107.83;69.67;;;14.90;99.90;;;;;;5026343;28;20069;-75
2024/02/28 09:31:23;;;;;;;68.50;40.43;;;15.00;99.90;;;;;;5030388;28;20026;-73
2024/02/28 09:33:49;;;;;;;61.77;38.23;;;15.00;99.90;;;;;;5062856;28;20033;-72
2024/02/28 09:36:14;;;;;;;56.53;35.90;;;15.00;99.90;;;;;;5030992;28;20026;-74
2024/02/28 09:38:42;;;;;;;58.23;35.30;;;15.00;99.90;;;;;;5028394;28;20508;-73
2024/02/28 09:41:14;;;;;;;57.80;34.58;;;15.00;99.90;;;;;;5026901;28;20363;-73
2024/02/28 09:43:44;;;;;;;56.47;32.92;;;15.00;99.90;;;;;;5030603;28;20108;-74
2024/02/28 09:46:12;;;;;;;46.83;32.10;;;15.00;99.90;;;;;;5030641;28;20022;-74
2024/02/28 09:48:41;;;;;;;54.33;33.20;;;15.10;99.90;;;;;;5031071;28;20108;-75
2024/02/28 09:51:12;;;;;;;50.47;29.48;;;15.10;99.90;;;;;;5031003;28;20033;-74
2024/02/28 09:53:38;;;;;;;51.92;28.58;;;15.10;99.90;;;;;;5029188;28;20044;-73
2024/02/28 09:56:06;;;;;;;46.17;27.95;;;15.10;99.90;;;;;;5061840;28;20026;-74
2024/02/28 09:58:33;;;;;;;45.47;27.90;;;15.10;99.90;;;;;;5030186;28;20029;-73
2024/02/28 10:01:02;;;;;;;50.10;30.50;;;15.10;99.90;;;;;;5031048;28;20033;-73
2024/02/28 10:03:30;;;;;;;43.13;27.77;;;15.20;99.90;;;;;;5062805;28;20132;-74
2024/02/28 10:05:56;;;;;;;45.50;25.48;;;15.20;99.90;;;;;;5030511;28;20397;-74
2024/02/28 10:08:23;;;;;;;47.67;25.77;;;15.30;99.90;;;;;;5030894;28;20109;-73
2024/02/28 10:10:49;;;;;;;38.15;24.48;;;15.30;99.90;;;;;;5030454;28;20094;-73
2024/02/28 10:13:18;;;;;;;36.90;24.58;;;15.30;99.90;;;;;;5029151;28;20107;-75
2024/02/28 10:15:44;;;;;;;70.80;43.53;;;15.40;99.90;;;;;;5030194;28;20029;-75
2024/02/28 10:18:11;;;;;;;44.72;28.42;;;15.50;99.90;;;;;;5030745;28;20120;-72
2024/02/28 10:20:36;;;;;;;49.35;29.95;;;15.50;99.90;;;;;;5030488;28;20029;-73
2024/02/28 10:23:09;;;;;;;46.07;29.17;;;15.60;99.90;;;;;;5028973;28;20036;-73
2024/02/28 10:25:47;;;;;;;44.20;27.73;;;15.60;99.90;;;;;;5030205;28;20030;-73
2024/02/28 10:28:14;;;;;;;44.35;27.30;;;15.70;99.90;;;;;;5030906;28;20091;-73
2024/02/28 10:30:41;;;;;;;;;;;15.70;99.90;;;;;;5030578;28;20028;-76
2024/02/28 10:33:15;;;;;;;41.30;26.30;;;15.90;99.90;;;;;;5029186;28;19917;-73
2024/02/28 10:35:44;;;;;;;36.15;23.40;;;15.90;99.90;;;;;;5029791;28;20030;-73
2024/02/28 10:38:11;;;;;;;42.75;26.33;;;16.00;99.90;;;;;;5029106;28;20035;-72
2024/02/28 10:40:38;;;;;;;;;;;16.10;99.90;;;;;;5059190;28;20025;-75
2024/02/28 10:43:05;;;;;;;33.22;23.10;;;16.10;99.90;;;;;;5029080;28;19907;-71
2024/02/28 10:45:31;;;;;;;32.47;22.85;;;16.10;99.90;;;;;;5061873;28;20029;-71
2024/02/28 10:47:58;;;;;;;34.20;22.83;;;16.20;99.90;;;;;;5029481;28;20032;-74
2024/02/28 10:50:24;;;;;;;30.92;21.98;;;16.40;99.90;;;;;;5030281;28;20134;-71
2024/02/28 10:52:54;;;;;;;34.47;23.37;;;16.50;99.90;;;;;;5029973;28;20485;-73
2024/02/28 10:55:24;;;;;;;33.45;21.35;;;16.60;99.90;;;;;;5061682;28;20297;-71
2024/02/28 10:58:03;;;;;;;32.83;22.23;;;16.90;99.90;;;;;;5030298;28;20432;-73
2024/02/28 11:00:30;;;;;;;31.95;21.25;;;17.10;99.90;;;;;;5030205;28;20021;-75
2024/02/28 11:02:58;;;;;;;;;;;16.90;99.90;;;;;;5030759;28;20091;-73
2024/02/28 11:05:24;;;;;;;30.60;19.95;;;16.70;99.90;;;;;;5030564;28;19905;-75
2024/02/28 11:07:52;;;;;;;31.87;20.40;;;16.70;99.90;;;;;;5028797;28;20021;-73
2024/02/28 11:10:23;;;;;;;33.47;19.98;;;16.70;99.90;;;;;;5032248;28;20076;-73
2024/02/28 11:12:55;;;;;;;30.85;19.73;;;16.70;99.90;;;;;;5033226;28;20657;-77
2024/02/28 11:15:27;;;;;;;24.77;17.77;;;16.70;99.90;;;;;;5032721;28;20528;-76
2024/02/28 11:17:53;;;;;;;31.33;18.75;;;16.80;99.90;;;;;;5034463;28;20052;-74
2024/02/28 11:20:19;;;;;;;29.67;17.70;;;16.90;99.90;;;;;;5034220;28;20034;-73
2024/02/28 11:22:45;;;;;;;29.88;17.92;;;17.00;99.90;;;;;;5033673;28;20313;-74
2024/02/28 11:25:11;;;;;;;26.40;17.63;;;17.20;99.90;;;;;;5034213;28;20053;-73
2024/02/28 11:27:50;;;;;;;26.63;16.60;;;17.60;99.90;;;;;;5031685;28;20269;-76
2024/02/28 11:30:17;;;;;;;24.38;16.30;;;17.80;99.90;;;;;;5033858;28;20561;-74
2024/02/28 11:32:43;;;;;;;25.67;16.95;;;17.70;99.90;;;;;;5033112;28;20017;-73
2024/02/28 11:35:12;;;;;;;22.80;16.15;;;17.80;99.90;;;;;;5033877;28;20022;-77
2024/02/28 11:37:41;;;;;;;21.98;15.10;;;17.70;99.90;;;;;;5065182;28;20030;-73
2024/02/28 11:40:11;;;;;;;26.00;15.52;;;17.90;99.90;;;;;;5032080;28;20136;-76
2024/02/28 11:42:39;;;;;;;24.80;15.85;;;17.90;99.90;;;;;;5031802;28;20036;-73
2024/02/28 11:45:05;;;;;;;22.92;14.77;;;17.90;99.90;;;;;;5033647;28;20013;-73
2024/02/28 11:47:35;;;;;;;21.73;15.15;;;18.10;99.90;;;;;;5031625;28;20121;-74
2024/02/28 11:50:02;;;;;;;21.00;14.80;;;18.30;99.90;;;;;;5032987;28;20678;-71
2024/02/28 11:52:30;;;;;;;26.45;14.88;;;18.30;99.90;;;;;;5031141;28;20053;-74
2024/02/28 11:54:56;;;;;;;21.73;14.32;;;18.30;99.90;;;;;;5028067;28;20029;-72
2024/02/28 11:57:22;;;;;;;27.67;14.52;;;18.30;99.90;;;;;;5032854;28;20087;-75
2024/02/28 11:59:49;;;;;;;19.58;13.40;;;18.40;99.90;;;;;;5032966;28;20125;-74
2024/02/28 12:02:16;;;;;;;19.27;14.27;;;18.40;99.90;;;;;;5030167;28;20108;-72
2024/02/28 12:04:57;;;;;;;20.98;13.45;;;18.10;99.90;;;;;;5033193;28;20491;-75
2024/02/28 12:07:27;;;;;;;19.45;13.73;;;18.00;99.90;;;;;;5032242;28;20120;-73
2024/02/28 12:09:57;;;;;;;20.20;12.93;;;18.00;99.90;;;;;;5033266;28;20412;-73
2024/02/28 12:12:24;;;;;;;19.77;12.00;;;18.10;99.90;;;;;;5032230;28;20033;-73
2024/02/28 12:14:50;;;;;;;21.15;13.43;;;18.10;99.90;;;;;;5064432;28;20040;-72
2024/02/28 12:17:35;;;;;;;18.23;12.90;;;18.10;99.90;;;;;;5051435;28;20021;-73
2024/02/28 12:20:03;;;;;;;19.20;12.27;;;18.00;99.90;;;;;;5023241;28;20057;-73
2024/02/28 12:22:29;;;;;;;17.20;11.70;;;18.00;99.90;;;;;;5026810;28;20029;-73
2024/02/28 12:25:23;;;;;;;19.98;10.85;;;17.90;99.90;;;;;;5031619;28;20131;-74
2024/02/28 12:27:51;;;;;;;23.13;12.05;;;18.00;99.90;;;;;;5028102;28;20033;-73
2024/02/28 12:30:18;;;;;;;18.52;11.65;;;18.00;99.90;;;;;;5030136;28;20021;-73
2024/02/28 12:32:43;;;;;;;18.00;11.13;;;17.90;99.90;;;;;;5030932;28;20471;-76
2024/02/28 12:35:09;;;;;;;15.83;10.57;;;17.80;99.90;;;;;;5030807;28;20083;-72
2024/02/28 12:37:35;;;;;;;15.88;11.80;;;17.70;99.90;;;;;;5031289;28;20104;-73